Balcarres, Canada
Current Conditions -  °F | °C
As of 8:00 AM on Wednesday 22 Oct 2014 (Local Time) from CYQR Reporting Station
Few Clouds Few Clouds  
Wind Chill: 37°   Ceiling: Unl
Heat Index: 43°   Visibility: 15mi
Dew Point: 43°   Wind: 9mph
Humidity: 100%   Direction: 260°W
Pressure: 29.67"   Gusts: NA
Location:  50.8°N, 103.55°W
Report Text: CYQR 221400Z 26008KT 15SM FEW089 06/06 A2967 RMK AC1 ACC ASOCTD SHWRS W CB TOPS NW SLP060
Loading
Personal Weather Stations






























Interactive Weather Map
Tropical Storm Tracking
New forecast layout! Learn more

10-Day Weather Forecast

Advertisements
Track Severe Weather on mobile